createdAt,value
2022-12-13T00:00:54.288Z,12.27
2022-12-13T00:04:00.300Z,11.63
2022-12-13T00:07:03.289Z,12.73
2022-12-13T00:10:08.352Z,13.00
2022-12-13T00:13:11.344Z,12.87
2022-12-13T00:16:16.762Z,12.93
2022-12-13T00:19:21.341Z,12.70
2022-12-13T00:22:24.319Z,13.67
2022-12-13T00:25:27.478Z,12.37
2022-12-13T00:28:30.495Z,13.00
2022-12-13T00:34:57.717Z,13.67
2022-12-13T00:38:00.670Z,13.60
2022-12-13T00:41:11.847Z,13.83
2022-12-13T00:44:15.636Z,13.40
2022-12-13T00:47:20.668Z,13.43
2022-12-13T00:50:25.033Z,14.17
2022-12-13T00:53:28.010Z,14.03
2022-12-13T00:56:32.660Z,13.33
2022-12-13T00:59:35.558Z,13.83
2022-12-13T01:02:38.470Z,14.13
2022-12-13T01:06:13.634Z,13.37
2022-12-13T01:09:08.969Z,12.70
2022-12-13T01:12:12.643Z,13.47
2022-12-13T01:15:15.718Z,13.37
2022-12-13T01:18:19.364Z,13.63
2022-12-13T01:21:23.671Z,12.40
2022-12-13T01:24:27.023Z,12.63
2022-12-13T01:27:30.011Z,12.17
2022-12-13T01:30:33.037Z,12.03
2022-12-13T01:33:36.173Z,12.50
2022-12-13T01:36:41.467Z,11.93
2022-12-13T01:39:44.491Z,12.27
2022-12-13T01:42:47.350Z,12.73
2022-12-13T01:45:50.355Z,12.33
2022-12-13T01:49:01.491Z,12.63
2022-12-13T01:52:10.521Z,12.30
2022-12-13T01:55:15.268Z,13.30
2022-12-13T01:58:19.124Z,13.30
2022-12-13T02:01:23.440Z,13.40
2022-12-13T02:04:32.529Z,13.77
2022-12-13T02:07:39.385Z,14.00
2022-12-13T02:10:43.750Z,14.10
2022-12-13T02:13:46.736Z,12.97
2022-12-13T02:17:01.248Z,13.17
2022-12-13T02:20:41.841Z,13.37
2022-12-13T02:24:29.299Z,14.70
2022-12-13T02:27:45.125Z,12.73
2022-12-13T02:30:54.181Z,12.13
2022-12-13T02:34:03.182Z,13.37
2022-12-13T02:37:17.631Z,13.13
2022-12-13T02:40:27.333Z,13.53
2022-12-13T02:43:35.834Z,14.10
2022-12-13T02:46:44.028Z,14.53
2022-12-13T02:49:50.839Z,14.50
2022-12-13T02:52:55.419Z,14.70
2022-12-13T02:55:58.380Z,14.77
2022-12-13T02:59:09.877Z,14.77
2022-12-13T03:02:31.183Z,14.20
2022-12-13T03:06:01.856Z,15.43
2022-12-13T03:09:28.137Z,15.13
2022-12-13T03:12:56.317Z,15.70
2022-12-13T03:16:01.276Z,15.13
2022-12-13T03:19:07.991Z,14.77
2022-12-13T03:22:11.057Z,15.67
2022-12-13T03:25:15.176Z,15.37
2022-12-13T03:28:34.867Z,15.30
2022-12-13T03:31:37.863Z,14.57
2022-12-13T03:34:43.328Z,14.53
2022-12-13T03:37:46.880Z,15.77
2022-12-13T03:40:50.523Z,15.43
2022-12-13T03:43:53.660Z,15.47
2022-12-13T03:46:56.600Z,14.90
2022-12-13T03:50:25.548Z,15.87
2022-12-13T03:53:33.674Z,14.27
2022-12-13T03:56:37.301Z,14.57
2022-12-13T03:59:40.248Z,14.73
2022-12-13T04:02:43.255Z,15.83
2022-12-13T04:05:47.527Z,13.87
2022-12-13T04:08:51.000Z,15.03
2022-12-13T04:12:11.623Z,15.03
2022-12-13T04:15:14.825Z,14.30
2022-12-13T04:18:18.990Z,14.87
2022-12-13T04:21:23.303Z,14.60
2022-12-13T04:24:31.397Z,14.53
2022-12-13T04:27:34.968Z,13.80
2022-12-13T04:30:38.101Z,14.97
2022-12-13T04:33:41.024Z,14.07
2022-12-13T04:36:45.306Z,14.57
2022-12-13T04:39:48.283Z,14.30
2022-12-13T04:42:53.821Z,15.13
2022-12-13T04:45:58.747Z,14.53
2022-12-13T04:49:01.999Z,14.47
2022-12-13T04:52:06.274Z,14.53
2022-12-13T04:55:09.913Z,14.60
2022-12-13T04:58:13.003Z,14.93
2022-12-13T05:01:15.981Z,14.93
2022-12-13T05:04:19.210Z,14.10
2022-12-13T05:07:23.636Z,15.27
2022-12-13T05:10:32.086Z,15.07
2022-12-13T05:13:40.883Z,14.67
2022-12-13T05:16:43.863Z,14.13
2022-12-13T05:19:46.848Z,13.77
2022-12-13T05:22:51.207Z,13.73
2022-12-13T05:25:54.640Z,14.70
2022-12-13T05:28:57.685Z,13.73
2022-12-13T05:32:00.926Z,14.53
2022-12-13T05:35:04.172Z,13.80
2022-12-13T05:38:08.494Z,13.63
2022-12-13T05:41:14.976Z,13.30
2022-12-13T05:44:17.898Z,13.90
2022-12-13T05:47:21.002Z,13.60
2022-12-13T05:50:23.942Z,14.47
2022-12-13T05:53:30.607Z,12.80
2022-12-13T05:56:33.981Z,13.33
2022-12-13T05:59:36.881Z,12.90
2022-12-13T06:02:40.586Z,13.43
2022-12-13T06:05:44.362Z,13.70
2022-12-13T06:08:48.655Z,13.63
2022-12-13T06:11:51.708Z,12.80
2022-12-13T06:15:05.426Z,12.67
2022-12-13T06:18:25.119Z,13.30
2022-12-13T06:21:28.067Z,14.40
2022-12-13T06:24:32.344Z,13.80
2022-12-13T06:27:35.307Z,14.07
2022-12-13T06:30:42.857Z,13.30
2022-12-13T06:33:46.324Z,12.97
2022-12-13T06:36:49.314Z,13.13
2022-12-13T06:39:53.605Z,15.37
2022-12-13T06:42:56.531Z,13.50
2022-12-13T06:45:59.479Z,13.83
2022-12-13T06:49:02.455Z,14.93
2022-12-13T06:52:05.983Z,14.27
2022-12-13T06:55:11.007Z,15.30
2022-12-13T06:58:13.929Z,14.30
2022-12-13T07:01:23.838Z,14.87
2022-12-13T07:04:30.110Z,15.17
2022-12-13T07:07:34.192Z,15.43
2022-12-13T07:10:40.608Z,14.87
2022-12-13T07:13:43.695Z,14.50
2022-12-13T07:16:46.701Z,15.63
2022-12-13T07:19:49.608Z,15.50
2022-12-13T07:22:58.862Z,14.73
2022-12-13T07:26:03.581Z,15.67
2022-12-13T07:29:06.476Z,15.13
2022-12-13T07:32:09.396Z,15.60
2022-12-13T07:35:12.312Z,16.60
2022-12-13T07:38:15.330Z,15.47
2022-12-13T07:41:23.400Z,17.03
2022-12-13T07:44:27.164Z,16.13
2022-12-13T07:47:31.169Z,15.93
2022-12-13T07:50:37.448Z,17.37
2022-12-13T07:53:41.431Z,16.00
2022-12-13T07:56:46.037Z,18.13
2022-12-13T07:59:49.173Z,18.40
2022-12-13T08:02:52.101Z,18.60
2022-12-13T08:06:00.844Z,18.63
2022-12-13T08:09:05.717Z,18.43
2022-12-13T08:12:10.264Z,18.53
2022-12-13T08:15:14.315Z,17.93
2022-12-13T08:18:17.382Z,18.97
2022-12-13T08:21:52.442Z,18.90
2022-12-13T08:24:44.555Z,18.37
2022-12-13T08:27:48.867Z,17.97
2022-12-13T08:30:52.047Z,18.53
2022-12-13T08:33:54.905Z,19.23
2022-12-13T08:37:02.698Z,17.93
2022-12-13T08:40:07.880Z,18.07
2022-12-13T08:43:12.569Z,18.07
2022-12-13T08:46:15.964Z,16.17
2022-12-13T08:49:18.986Z,17.40
2022-12-13T08:52:22.804Z,16.50
2022-12-13T08:55:31.808Z,18.13
2022-12-13T08:58:36.754Z,16.77
2022-12-13T09:01:39.799Z,17.30
2022-12-13T09:04:42.961Z,18.10
2022-12-13T09:07:45.907Z,17.07
2022-12-13T09:10:59.279Z,17.87
2022-12-13T09:14:04.771Z,17.20
2022-12-13T09:17:08.158Z,18.10
2022-12-13T09:20:28.118Z,17.97
2022-12-13T09:23:35.600Z,17.37
2022-12-13T09:26:38.827Z,17.97
2022-12-13T09:29:43.382Z,16.37
2022-12-13T09:32:49.819Z,16.67
2022-12-13T09:35:53.389Z,16.43
2022-12-13T09:38:59.007Z,16.17
2022-12-13T09:42:10.389Z,15.57
2022-12-13T09:45:26.893Z,17.10
2022-12-13T09:48:35.460Z,15.83
2022-12-13T09:51:43.020Z,16.27
2022-12-13T09:54:54.945Z,17.40
2022-12-13T09:57:59.518Z,16.70
2022-12-13T10:01:06.883Z,16.90
2022-12-13T10:04:14.600Z,16.50
2022-12-13T10:07:20.997Z,17.50
2022-12-13T10:10:24.823Z,17.40
2022-12-13T10:13:38.679Z,17.67
2022-12-13T10:16:47.278Z,18.03
2022-12-13T10:19:52.525Z,16.90
2022-12-13T10:23:31.163Z,17.30
2022-12-13T10:26:24.476Z,16.00
2022-12-13T10:29:28.134Z,16.80
2022-12-13T10:32:43.737Z,16.83
2022-12-13T10:36:03.642Z,16.87
2022-12-13T10:39:06.684Z,15.47
2022-12-13T10:42:23.656Z,15.27
2022-12-13T10:45:28.060Z,15.43
2022-12-13T10:48:39.113Z,14.97
2022-12-13T10:51:42.322Z,14.70
2022-12-13T10:54:48.170Z,14.20
2022-12-13T10:57:53.559Z,14.37
2022-12-13T11:01:10.932Z,14.33
2022-12-13T11:04:28.404Z,14.20
2022-12-13T11:07:33.356Z,13.80
2022-12-13T11:10:36.519Z,12.93
2022-12-13T11:13:45.818Z,13.63
2022-12-13T11:16:53.011Z,13.80
2022-12-13T11:20:01.536Z,14.10
2022-12-13T11:23:07.641Z,14.53
2022-12-13T11:26:16.450Z,15.00
2022-12-13T11:29:47.387Z,15.00
2022-12-13T11:33:19.271Z,15.30
2022-12-13T11:36:34.953Z,14.83
2022-12-13T11:39:43.202Z,14.30
2022-12-13T11:42:52.788Z,13.00
2022-12-13T11:45:58.802Z,14.70
2022-12-13T11:49:05.365Z,14.47
2022-12-13T11:52:17.561Z,14.43
2022-12-13T11:55:25.411Z,12.87
2022-12-13T12:02:05.878Z,13.43
2022-12-13T12:05:25.968Z,13.97
2022-12-13T12:08:36.556Z,14.00
2022-12-13T12:11:46.678Z,14.67
2022-12-13T12:14:55.634Z,13.97
2022-12-13T12:17:58.966Z,14.80
2022-12-13T12:21:14.930Z,14.60
2022-12-13T12:24:28.848Z,14.33
2022-12-13T12:27:39.919Z,14.20
2022-12-13T12:30:51.701Z,14.00
2022-12-13T12:34:05.461Z,14.67
2022-12-13T12:37:16.765Z,15.03
2022-12-13T12:44:14.956Z,14.43
2022-12-13T12:47:57.836Z,14.10
2022-12-13T12:51:03.689Z,14.57
2022-12-13T12:54:24.192Z,14.80
2022-12-13T12:57:40.816Z,14.30
2022-12-13T13:00:53.578Z,14.37
2022-12-13T13:04:01.903Z,13.97
2022-12-13T13:07:23.080Z,13.93
2022-12-13T13:10:27.643Z,12.77
2022-12-13T13:13:47.227Z,14.27
2022-12-13T13:16:50.405Z,13.77
2022-12-13T13:20:04.045Z,13.13
2022-12-13T13:23:39.793Z,13.07
2022-12-13T13:26:40.117Z,12.73
2022-12-13T13:29:44.595Z,12.60
2022-12-13T13:32:49.062Z,13.07
2022-12-13T13:35:53.574Z,13.77
2022-12-13T13:39:01.598Z,13.10
2022-12-13T13:42:17.998Z,14.30
2022-12-13T13:45:23.997Z,12.53
2022-12-13T13:48:55.009Z,13.13
2022-12-13T13:52:26.387Z,13.23
2022-12-13T13:55:49.930Z,13.50
2022-12-13T13:59:25.135Z,13.40
2022-12-13T14:03:09.093Z,13.10
2022-12-13T14:07:00.647Z,14.30
2022-12-13T14:10:24.484Z,12.80
2022-12-13T14:14:00.837Z,13.13
2022-12-13T14:17:38.577Z,12.80
2022-12-13T14:20:49.911Z,12.43
2022-12-13T14:24:05.288Z,13.80
2022-12-13T14:27:20.660Z,14.00
2022-12-13T14:30:28.237Z,13.97
2022-12-13T14:33:32.195Z,13.27
2022-12-13T14:36:39.065Z,14.13
2022-12-13T14:39:46.087Z,13.63
2022-12-13T14:42:54.714Z,13.57
2022-12-13T14:45:59.276Z,13.47
2022-12-13T14:49:07.504Z,13.47
2022-12-13T14:52:26.730Z,15.27
2022-12-13T14:55:36.145Z,14.73
2022-12-13T14:58:39.654Z,14.07
2022-12-13T15:01:43.348Z,13.77
2022-12-13T15:04:46.311Z,16.00
2022-12-13T15:07:50.056Z,15.30
2022-12-13T15:10:56.836Z,15.83
2022-12-13T15:13:59.865Z,15.53
2022-12-13T15:17:03.624Z,15.00
2022-12-13T15:20:24.874Z,15.93
2022-12-13T15:23:32.583Z,15.63
2022-12-13T15:26:37.382Z,16.07
2022-12-13T15:29:41.831Z,15.97
2022-12-13T15:33:02.836Z,17.63
2022-12-13T15:36:09.968Z,16.47
2022-12-13T15:39:17.992Z,15.30
2022-12-13T15:42:25.034Z,16.57
2022-12-13T15:45:34.943Z,16.47
2022-12-13T15:48:48.425Z,16.63
2022-12-13T15:51:59.662Z,18.27
2022-12-13T15:55:28.646Z,16.73
2022-12-13T15:58:36.606Z,19.37
2022-12-13T16:01:39.537Z,18.37
2022-12-13T16:04:42.594Z,17.23
2022-12-13T16:07:56.162Z,16.97
2022-12-13T16:11:00.269Z,16.93
2022-12-13T16:14:49.344Z,17.30
2022-12-13T16:17:54.427Z,16.87
2022-12-13T16:21:02.424Z,14.80
2022-12-13T16:24:06.132Z,16.40
2022-12-13T16:27:10.633Z,17.83
2022-12-13T16:30:22.473Z,17.73
2022-12-13T16:33:27.931Z,16.43
2022-12-13T16:36:30.977Z,15.97
2022-12-13T16:39:33.872Z,16.43
2022-12-13T16:42:36.867Z,17.63
2022-12-13T16:45:44.426Z,18.57
2022-12-13T16:48:47.340Z,19.23
2022-12-13T16:51:50.669Z,18.13
2022-12-13T16:54:53.752Z,20.13
2022-12-13T16:57:58.947Z,19.40
2022-12-13T17:01:08.648Z,18.77
2022-12-13T17:04:19.304Z,18.70
2022-12-13T17:07:23.537Z,20.07
2022-12-13T17:10:26.910Z,19.40
2022-12-13T17:13:30.097Z,19.30
2022-12-13T17:16:34.809Z,19.00
2022-12-13T17:19:37.862Z,20.57
2022-12-13T17:22:40.880Z,20.67
2022-12-13T17:25:43.809Z,19.27
2022-12-13T17:28:47.275Z,20.27
2022-12-13T17:31:51.986Z,20.33
2022-12-13T17:34:55.895Z,20.37
2022-12-13T17:37:59.119Z,21.27
2022-12-13T17:41:02.052Z,21.23
2022-12-13T17:44:05.113Z,21.10
2022-12-13T17:47:09.793Z,19.93
2022-12-13T17:50:13.339Z,19.97
2022-12-13T17:53:16.324Z,20.40
2022-12-13T17:56:19.728Z,19.43
2022-12-13T17:59:23.178Z,19.57
2022-12-13T18:02:27.813Z,21.77
2022-12-13T18:05:33.015Z,19.10
2022-12-13T18:08:36.734Z,21.43
2022-12-13T18:11:39.715Z,19.13
2022-12-13T18:14:43.555Z,19.83
2022-12-13T18:18:10.657Z,21.13
2022-12-13T18:21:13.228Z,20.90
2022-12-13T18:24:16.230Z,20.90
2022-12-13T18:27:19.300Z,21.57
2022-12-13T18:30:22.819Z,20.57
2022-12-13T18:33:27.617Z,20.97
2022-12-13T18:36:31.072Z,18.93
2022-12-13T18:39:34.899Z,19.33
2022-12-13T18:42:37.811Z,19.13
2022-12-13T18:45:40.706Z,19.57
2022-12-13T18:48:46.801Z,18.70
2022-12-13T18:51:49.751Z,20.33
2022-12-13T18:54:54.066Z,19.80
2022-12-13T18:57:57.326Z,21.33
2022-12-13T19:01:00.420Z,21.10
2022-12-13T19:04:04.825Z,20.67
2022-12-13T19:07:08.037Z,19.80
2022-12-13T19:10:11.392Z,20.60
2022-12-13T19:13:14.371Z,20.17
2022-12-13T19:16:21.268Z,17.57
2022-12-13T19:19:25.630Z,18.97
2022-12-13T19:22:30.232Z,18.07
2022-12-13T19:25:33.228Z,18.13
2022-12-13T19:28:36.503Z,17.97
2022-12-13T19:31:39.502Z,18.47
2022-12-13T19:34:43.788Z,18.30
2022-12-13T19:37:46.735Z,19.17
2022-12-13T19:40:49.650Z,20.27
2022-12-13T19:43:53.555Z,19.83
2022-12-13T19:46:57.053Z,20.83
2022-12-13T19:50:01.467Z,20.53
2022-12-13T19:53:04.542Z,17.73
2022-12-13T19:56:10.928Z,18.63
2022-12-13T19:59:13.834Z,17.67
2022-12-13T20:02:16.740Z,19.17
2022-12-13T20:05:21.022Z,19.23
2022-12-13T20:08:23.982Z,19.53
2022-12-13T20:11:26.930Z,19.87
2022-12-13T20:14:29.978Z,19.53
2022-12-13T20:17:33.434Z,20.77
2022-12-13T20:21:02.503Z,20.87
2022-12-13T20:24:00.579Z,19.70
2022-12-13T20:27:03.622Z,21.30
2022-12-13T20:30:08.075Z,20.50
2022-12-13T20:33:11.010Z,20.07
2022-12-13T20:36:25.852Z,19.87
2022-12-13T20:39:29.524Z,18.90
2022-12-13T20:42:33.558Z,20.57
2022-12-13T20:45:36.429Z,20.97
2022-12-13T20:48:41.611Z,21.03
2022-12-13T20:51:45.974Z,20.60
2022-12-13T20:54:48.917Z,19.43
2022-12-13T20:57:51.891Z,19.60
2022-12-13T21:00:55.376Z,20.40
2022-12-13T21:04:00.109Z,20.87
2022-12-13T21:07:04.382Z,20.80
2022-12-13T21:10:08.150Z,20.27
2022-12-13T21:13:11.089Z,19.00
2022-12-13T21:16:14.096Z,19.70
2022-12-13T21:19:19.220Z,19.57
2022-12-13T21:22:23.463Z,18.30
2022-12-13T21:25:26.406Z,18.93
2022-12-13T21:28:29.504Z,18.43
2022-12-13T21:31:32.543Z,19.03
2022-12-13T21:34:35.618Z,20.97
2022-12-13T21:37:40.019Z,19.23
2022-12-13T21:40:45.688Z,19.03
2022-12-13T21:43:49.042Z,19.43
2022-12-13T21:47:11.802Z,19.80
2022-12-13T21:50:15.378Z,20.20
2022-12-13T21:53:19.656Z,20.47
2022-12-13T21:56:44.263Z,21.30
2022-12-13T21:59:47.310Z,21.47
2022-12-13T22:02:50.283Z,21.63
2022-12-13T22:05:53.232Z,21.00
2022-12-13T22:08:57.556Z,22.10
2022-12-13T22:12:00.740Z,22.03
2022-12-13T22:15:05.270Z,21.60
2022-12-13T22:18:08.258Z,21.07
2022-12-13T22:21:11.447Z,20.07
2022-12-13T22:24:16.084Z,20.93
2022-12-13T22:27:23.337Z,20.77
2022-12-13T22:30:26.558Z,20.93
2022-12-13T22:33:29.474Z,20.57
2022-12-13T22:36:32.434Z,20.30
2022-12-13T22:39:36.951Z,21.47
2022-12-13T22:42:39.918Z,21.57
2022-12-13T22:45:42.949Z,22.03
2022-12-13T22:48:46.477Z,22.00
2022-12-13T22:51:49.554Z,21.17
2022-12-13T22:54:53.875Z,21.10
2022-12-13T22:57:56.823Z,20.67
2022-12-13T23:01:00.039Z,21.10
2022-12-13T23:04:03.151Z,20.93
2022-12-13T23:07:06.098Z,21.07
2022-12-13T23:10:31.098Z,19.40
2022-12-13T23:13:33.102Z,19.47
2022-12-13T23:16:36.862Z,18.80
2022-12-13T23:19:49.920Z,20.13
2022-12-13T23:22:55.880Z,20.07
2022-12-13T23:26:08.957Z,19.57
2022-12-13T23:29:11.907Z,19.27
2022-12-13T23:32:15.528Z,19.93
2022-12-13T23:35:18.482Z,18.43
2022-12-13T23:38:21.379Z,19.97
2022-12-13T23:41:32.311Z,20.17
2022-12-13T23:44:36.848Z,20.63
2022-12-13T23:47:40.005Z,20.03
2022-12-13T23:50:42.934Z,20.63
2022-12-13T23:53:46.244Z,20.87
2022-12-13T23:56:50.770Z,20.77
2022-12-13T23:59:53.986Z,20.57
